createdAt,value
2022-12-15T00:02:20.089Z,27.50
2022-12-15T00:04:41.016Z,30.17
2022-12-15T00:07:01.523Z,27.30
2022-12-15T00:09:25.167Z,26.95
2022-12-15T00:11:48.614Z,24.30
2022-12-15T00:14:09.542Z,24.77
2022-12-15T00:16:29.808Z,25.77
2022-12-15T00:18:50.651Z,27.63
2022-12-15T00:21:16.273Z,26.77
2022-12-15T00:23:36.519Z,24.30
2022-12-15T00:25:56.823Z,23.70
2022-12-15T00:28:17.131Z,22.75
2022-12-15T00:30:37.881Z,26.97
2022-12-15T00:32:58.215Z,27.38
2022-12-15T00:35:18.432Z,26.27
2022-12-15T00:37:38.698Z,25.33
2022-12-15T00:39:40.663Z,25.50
2022-12-15T00:41:42.657Z,25.63
2022-12-15T00:43:45.225Z,24.90
2022-12-15T00:46:05.976Z,27.30
2022-12-15T00:48:07.967Z,25.83
2022-12-15T00:50:28.415Z,27.30
2022-12-15T00:52:49.153Z,26.20
2022-12-15T00:55:09.315Z,25.57
2022-12-15T00:57:30.119Z,24.17
2022-12-15T00:59:50.397Z,25.33
2022-12-15T01:02:11.336Z,24.20
2022-12-15T01:04:32.192Z,24.80
2022-12-15T01:06:53.131Z,24.73
2022-12-15T01:09:14.012Z,26.83
2022-12-15T01:11:34.158Z,25.00
2022-12-15T01:13:55.002Z,24.65
2022-12-15T01:16:15.383Z,27.85
2022-12-15T01:18:35.852Z,27.50
2022-12-15T01:20:37.873Z,26.92
2022-12-15T01:22:40.367Z,27.45
2022-12-15T01:24:42.584Z,27.77
2022-12-15T01:26:44.566Z,28.90
2022-12-15T01:28:46.544Z,27.67
2022-12-15T01:30:48.618Z,24.73
2022-12-15T01:32:51.059Z,27.40
2022-12-15T01:34:53.752Z,26.58
2022-12-15T01:36:55.756Z,27.07
2022-12-15T01:38:57.761Z,28.20
2022-12-15T01:41:03.428Z,27.53
2022-12-15T01:43:12.101Z,25.30
2022-12-15T01:45:29.104Z,25.65
2022-12-15T01:47:31.201Z,26.80
2022-12-15T01:49:33.279Z,25.00
2022-12-15T01:51:40.654Z,26.05
2022-12-15T01:53:50.575Z,25.92
2022-12-15T01:55:53.821Z,25.80
2022-12-15T01:58:02.334Z,25.50
2022-12-15T02:00:06.795Z,24.93
2022-12-15T02:02:10.452Z,26.77
2022-12-15T02:04:12.687Z,26.27
2022-12-15T02:06:15.948Z,25.05
2022-12-15T02:08:17.933Z,25.85
2022-12-15T02:10:20.075Z,28.20
2022-12-15T02:12:37.743Z,25.00
2022-12-15T02:14:58.108Z,25.60
2022-12-15T02:17:18.722Z,25.77
2022-12-15T02:20:25.397Z,23.33
2022-12-15T02:22:49.148Z,22.58
2022-12-15T02:25:16.658Z,26.20
2022-12-15T02:27:34.528Z,24.95
2022-12-15T02:30:04.782Z,23.33
2022-12-15T02:32:13.512Z,25.15
2022-12-15T02:34:44.652Z,25.70
2022-12-15T02:36:54.823Z,26.17
2022-12-15T02:38:56.923Z,24.85
2022-12-15T02:41:03.576Z,22.33
2022-12-15T02:43:06.829Z,22.88
2022-12-15T02:45:13.587Z,25.60
2022-12-15T02:47:36.217Z,25.42
2022-12-15T02:49:49.845Z,24.73
2022-12-15T02:52:42.713Z,23.27
2022-12-15T02:55:04.806Z,23.33
2022-12-15T02:57:20.259Z,22.73
2022-12-15T02:59:55.539Z,22.05
2022-12-15T03:02:01.290Z,23.10
2022-12-15T03:04:05.733Z,22.15
2022-12-15T03:06:09.008Z,22.30
2022-12-15T03:08:11.001Z,22.33
2022-12-15T03:10:14.360Z,23.92
2022-12-15T03:12:16.430Z,22.38
2022-12-15T03:14:18.658Z,21.48
2022-12-15T03:16:21.043Z,20.60
2022-12-15T03:18:23.064Z,25.08
2022-12-15T03:20:25.448Z,21.02
2022-12-15T03:22:27.561Z,21.43
2022-12-15T03:24:29.700Z,21.10
2022-12-15T03:26:31.815Z,21.70
2022-12-15T03:28:34.232Z,21.53
2022-12-15T03:30:36.232Z,19.75
2022-12-15T03:32:38.212Z,20.60
2022-12-15T03:34:40.403Z,19.20
2022-12-15T03:36:42.541Z,20.13
2022-12-15T03:38:44.533Z,19.47
2022-12-15T03:40:46.560Z,19.17
2022-12-15T03:42:48.618Z,18.40
2022-12-15T03:44:50.667Z,20.10
2022-12-15T03:46:52.652Z,18.67
2022-12-15T03:48:54.872Z,19.05
2022-12-15T03:50:56.904Z,19.15
2022-12-15T03:53:01.109Z,18.05
2022-12-15T03:55:04.492Z,18.15
2022-12-15T03:57:06.880Z,17.80
2022-12-15T03:59:08.870Z,17.40
2022-12-15T04:01:12.949Z,19.80
2022-12-15T04:03:15.024Z,17.25
2022-12-15T04:05:25.806Z,17.75
2022-12-15T04:07:27.796Z,18.50
2022-12-15T04:09:29.779Z,20.37
2022-12-15T04:11:31.746Z,18.35
2022-12-15T04:13:34.227Z,18.85
2022-12-15T04:15:38.198Z,19.23
2022-12-15T04:17:41.837Z,17.75
2022-12-15T04:20:02.343Z,18.73
2022-12-15T04:22:04.386Z,19.80
2022-12-15T04:24:25.278Z,19.35
2022-12-15T04:26:45.947Z,16.60
2022-12-15T04:29:06.395Z,17.98
2022-12-15T04:31:41.911Z,18.08
2022-12-15T04:34:06.443Z,17.55
2022-12-15T04:36:28.218Z,17.30
2022-12-15T04:38:50.481Z,17.83
2022-12-15T04:41:11.472Z,18.58
2022-12-15T04:43:32.717Z,18.95
2022-12-15T04:45:53.365Z,17.05
2022-12-15T04:48:14.205Z,18.17
2022-12-15T04:50:35.004Z,16.92
2022-12-15T04:52:55.824Z,15.15
2022-12-15T04:55:16.496Z,17.42
2022-12-15T04:57:36.762Z,19.05
2022-12-15T04:59:57.464Z,17.45
2022-12-15T05:02:18.207Z,16.67
2022-12-15T05:04:39.184Z,17.75
2022-12-15T05:06:59.716Z,19.05
2022-12-15T05:09:20.563Z,15.25
2022-12-15T05:11:41.284Z,17.52
2022-12-15T05:14:02.284Z,17.65
2022-12-15T05:16:24.824Z,17.92
2022-12-15T05:18:45.562Z,18.15
2022-12-15T05:21:06.092Z,16.75
2022-12-15T05:23:27.041Z,17.70
2022-12-15T05:25:47.697Z,19.20
2022-12-15T05:28:08.292Z,17.27
2022-12-15T05:30:29.592Z,18.02
2022-12-15T05:32:33.101Z,17.15
2022-12-15T05:34:36.101Z,16.35
2022-12-15T05:36:38.232Z,16.13
2022-12-15T05:38:40.209Z,18.80
2022-12-15T05:40:42.569Z,21.23
2022-12-15T05:42:44.530Z,18.20
2022-12-15T05:44:52.130Z,18.48
2022-12-15T05:46:54.381Z,17.35
2022-12-15T05:48:56.419Z,18.98
2022-12-15T05:51:03.615Z,18.48
2022-12-15T05:53:05.599Z,16.23
2022-12-15T05:55:08.601Z,18.77
2022-12-15T05:57:10.741Z,19.70
2022-12-15T05:59:13.211Z,16.52
2022-12-15T06:01:18.017Z,20.60
2022-12-15T06:03:20.260Z,19.55
2022-12-15T06:05:22.226Z,16.80
2022-12-15T06:07:24.353Z,18.45
2022-12-15T06:09:26.384Z,16.35
2022-12-15T06:11:28.444Z,16.20
2022-12-15T06:13:32.364Z,16.98
2022-12-15T06:15:34.576Z,18.58
2022-12-15T06:17:36.541Z,16.63
2022-12-15T06:19:38.519Z,18.67
2022-12-15T06:21:40.607Z,16.50
2022-12-15T06:23:42.819Z,19.02
2022-12-15T06:25:44.867Z,16.90
2022-12-15T06:27:46.895Z,16.63
2022-12-15T06:29:49.596Z,15.20
2022-12-15T06:31:51.778Z,16.40
2022-12-15T06:34:01.351Z,18.65
2022-12-15T06:36:06.225Z,17.48
2022-12-15T06:38:08.410Z,15.88
2022-12-15T06:40:10.841Z,17.67
2022-12-15T06:42:14.660Z,16.25
2022-12-15T06:44:16.773Z,16.80
2022-12-15T06:46:19.641Z,17.60
2022-12-15T06:48:23.135Z,19.98
2022-12-15T06:50:25.107Z,16.13
2022-12-15T06:52:27.094Z,15.77
2022-12-15T06:54:29.139Z,15.05
2022-12-15T06:56:34.624Z,15.77
2022-12-15T06:58:36.936Z,16.25
2022-12-15T07:00:40.082Z,18.35
2022-12-15T07:02:42.936Z,16.35
2022-12-15T07:04:45.103Z,16.08
2022-12-15T07:06:47.163Z,15.75
2022-12-15T07:08:56.379Z,17.73
2022-12-15T07:10:58.579Z,16.88
2022-12-15T07:13:00.565Z,17.15
2022-12-15T07:15:03.052Z,16.52
2022-12-15T07:17:05.460Z,17.35
2022-12-15T07:19:11.671Z,17.27
2022-12-15T07:21:13.843Z,17.80
2022-12-15T07:23:15.923Z,16.17
2022-12-15T07:25:19.089Z,15.90
2022-12-15T07:27:21.125Z,16.67
2022-12-15T07:29:23.785Z,18.42
2022-12-15T07:31:25.907Z,16.40
2022-12-15T07:33:28.117Z,16.70
2022-12-15T07:35:30.928Z,18.10
2022-12-15T07:37:32.949Z,17.67
2022-12-15T07:39:34.951Z,17.67
2022-12-15T07:41:38.292Z,18.25
2022-12-15T07:43:40.422Z,19.45
2022-12-15T07:45:46.767Z,17.77
2022-12-15T07:47:52.187Z,18.67
2022-12-15T07:49:54.844Z,17.35
2022-12-15T07:51:58.470Z,18.52
2022-12-15T07:54:00.535Z,16.40
2022-12-15T07:56:08.967Z,18.27
2022-12-15T07:58:11.767Z,20.05
2022-12-15T08:00:15.065Z,20.23
2022-12-15T08:02:17.709Z,19.15
2022-12-15T08:04:20.029Z,20.52
2022-12-15T08:06:22.088Z,19.17
2022-12-15T08:08:24.098Z,17.02
2022-12-15T08:10:26.118Z,18.77
2022-12-15T08:12:29.125Z,17.67
2022-12-15T08:14:32.257Z,18.30
2022-12-15T08:16:36.480Z,17.38
2022-12-15T08:18:39.587Z,19.00
2022-12-15T08:20:41.916Z,17.65
2022-12-15T08:22:43.918Z,18.73
2022-12-15T08:24:45.949Z,18.65
2022-12-15T08:26:50.092Z,17.90
2022-12-15T08:28:53.047Z,19.55
2022-12-15T08:30:55.003Z,16.45
2022-12-15T08:32:56.999Z,18.05
2022-12-15T08:34:59.081Z,16.77
2022-12-15T08:37:01.018Z,18.25
2022-12-15T08:39:03.719Z,18.17
2022-12-15T08:41:09.570Z,17.67
2022-12-15T08:43:11.537Z,17.52
2022-12-15T08:45:13.574Z,18.80
2022-12-15T08:47:15.690Z,19.00
2022-12-15T08:49:21.702Z,17.37
2022-12-15T08:51:26.860Z,18.63
2022-12-15T08:53:31.588Z,18.53
2022-12-15T08:55:43.506Z,19.10
2022-12-15T08:57:45.957Z,16.20
2022-12-15T08:59:47.948Z,18.10
2022-12-15T09:01:50.032Z,18.17
2022-12-15T09:03:53.959Z,17.40
2022-12-15T09:05:57.620Z,19.00
2022-12-15T09:08:06.151Z,18.88
2022-12-15T09:10:08.983Z,17.40
2022-12-15T09:12:12.066Z,17.07
2022-12-15T09:14:14.819Z,17.83
2022-12-15T09:16:17.810Z,18.60
2022-12-15T09:18:19.967Z,16.77
2022-12-15T09:20:21.975Z,18.17
2022-12-15T09:22:24.093Z,19.40
2022-12-15T09:24:34.391Z,18.70
2022-12-15T09:26:36.936Z,18.38
2022-12-15T09:28:39.424Z,18.67
2022-12-15T09:30:41.534Z,17.10
2022-12-15T09:32:43.669Z,16.40
2022-12-15T09:34:45.869Z,21.60
2022-12-15T09:36:47.928Z,25.27
2022-12-15T09:38:50.083Z,20.77
2022-12-15T09:40:52.276Z,19.83
2022-12-15T09:43:25.617Z,21.10
2022-12-15T09:45:21.595Z,21.80
2022-12-15T09:47:41.926Z,21.30
2022-12-15T09:49:58.961Z,19.97
2022-12-15T09:52:10.691Z,17.80
2022-12-15T09:54:13.371Z,20.97
2022-12-15T09:56:21.317Z,23.63
2022-12-15T09:58:26.104Z,25.40
2022-12-15T10:00:55.872Z,22.90
2022-12-15T10:03:24.088Z,21.93
2022-12-15T10:06:07.289Z,24.07
2022-12-15T10:08:00.362Z,24.53
2022-12-15T10:10:37.936Z,26.13
2022-12-15T10:12:53.136Z,24.40
2022-12-15T10:15:12.304Z,23.27
2022-12-15T10:17:41.737Z,20.53
2022-12-15T10:19:56.722Z,19.00
2022-12-15T10:21:59.087Z,16.80
2022-12-15T10:24:37.382Z,15.90
2022-12-15T10:26:42.195Z,15.23
2022-12-15T10:29:12.892Z,30.50
2022-12-15T10:31:27.155Z,26.13
2022-12-15T10:33:36.435Z,21.57
2022-12-15T10:35:40.468Z,16.27
2022-12-15T10:37:42.892Z,14.97
2022-12-15T10:39:50.233Z,15.23
2022-12-15T10:42:18.313Z,15.70
2022-12-15T10:44:32.041Z,16.83
2022-12-15T10:46:34.364Z,14.53
2022-12-15T10:48:37.047Z,16.10
2022-12-15T10:50:38.987Z,14.13
2022-12-15T10:52:41.067Z,17.63
2022-12-15T10:54:48.717Z,15.40
2022-12-15T10:56:58.985Z,15.63
2022-12-15T10:59:22.809Z,14.20
2022-12-15T11:01:27.588Z,14.87
2022-12-15T11:03:31.069Z,14.10
2022-12-15T11:05:33.559Z,15.07
2022-12-15T11:07:40.953Z,14.83
2022-12-15T11:09:43.105Z,15.30
2022-12-15T11:12:06.055Z,14.33
2022-12-15T11:14:20.454Z,15.47
2022-12-15T11:16:22.430Z,13.57
2022-12-15T11:18:41.985Z,15.90
2022-12-15T11:20:48.801Z,14.63
2022-12-15T11:22:53.613Z,14.33
2022-12-15T11:25:06.530Z,16.33
2022-12-15T11:27:18.251Z,14.13
2022-12-15T11:29:23.537Z,12.47
2022-12-15T11:31:35.437Z,13.77
2022-12-15T11:33:37.482Z,14.80
2022-12-15T11:36:07.791Z,13.17
2022-12-15T11:38:32.497Z,14.07
2022-12-15T11:40:38.706Z,14.13
2022-12-15T11:43:05.843Z,15.83
2022-12-15T11:45:27.226Z,14.57
2022-12-15T11:47:36.072Z,14.57
2022-12-15T11:49:49.134Z,14.50
2022-12-15T11:52:05.996Z,14.20
2022-12-15T11:54:30.474Z,13.47
2022-12-15T11:56:35.632Z,13.20
2022-12-15T11:58:37.570Z,14.83
2022-12-15T12:00:43.050Z,15.00
2022-12-15T12:03:00.232Z,15.40
2022-12-15T12:05:25.521Z,13.53
2022-12-15T12:07:42.012Z,14.67
2022-12-15T12:09:44.343Z,13.80
2022-12-15T12:12:02.037Z,13.90
2022-12-15T12:14:12.178Z,15.80
2022-12-15T12:16:41.799Z,15.50
2022-12-15T12:18:55.681Z,14.87
2022-12-15T12:21:07.937Z,15.70
2022-12-15T12:23:13.079Z,15.10
2022-12-15T12:25:18.536Z,16.10
2022-12-15T12:27:39.561Z,16.33
2022-12-15T12:29:51.230Z,16.40
2022-12-15T12:32:15.885Z,15.93
2022-12-15T12:34:25.575Z,16.20
2022-12-15T12:36:27.747Z,16.50
2022-12-15T12:38:34.698Z,15.73
2022-12-15T12:40:40.457Z,16.10
2022-12-15T12:42:57.975Z,16.30
2022-12-15T12:45:02.040Z,16.47
2022-12-15T12:47:28.900Z,15.23
2022-12-15T12:49:36.330Z,16.13
2022-12-15T12:51:40.581Z,16.50
2022-12-15T12:53:42.566Z,18.20
2022-12-15T12:55:44.648Z,17.47
2022-12-15T12:57:47.564Z,15.10
2022-12-15T12:59:59.297Z,16.27
2022-12-15T13:02:20.154Z,16.57
2022-12-15T13:04:33.825Z,15.03
2022-12-15T13:06:35.770Z,16.13
2022-12-15T13:08:52.220Z,17.53
2022-12-15T13:10:55.601Z,15.50
2022-12-15T13:12:59.378Z,15.83
2022-12-15T13:15:06.649Z,16.07
2022-12-15T13:17:26.661Z,15.30
2022-12-15T13:19:58.179Z,14.50
2022-12-15T13:22:01.349Z,15.50
2022-12-15T13:24:04.168Z,16.37
2022-12-15T13:26:06.109Z,15.60
2022-12-15T13:28:29.688Z,16.83
2022-12-15T13:30:31.708Z,14.20
2022-12-15T13:32:52.484Z,16.80
2022-12-15T13:34:54.532Z,16.00
2022-12-15T13:36:57.837Z,17.33
2022-12-15T13:38:59.916Z,15.47
2022-12-15T13:41:02.058Z,15.37
2022-12-15T13:43:03.992Z,17.13
2022-12-15T13:45:16.046Z,15.90
2022-12-15T13:47:27.567Z,20.03
2022-12-15T13:49:33.357Z,17.80
2022-12-15T13:51:38.429Z,18.20
2022-12-15T13:53:44.304Z,16.30
2022-12-15T13:56:03.887Z,16.20
2022-12-15T13:58:16.107Z,16.87
2022-12-15T14:00:19.092Z,19.13
2022-12-15T14:02:36.286Z,16.80
2022-12-15T14:04:38.309Z,16.03
2022-12-15T14:06:47.092Z,17.20
2022-12-15T14:08:53.087Z,16.30
2022-12-15T14:11:00.051Z,17.70
2022-12-15T14:15:33.427Z,16.67
2022-12-15T14:17:36.327Z,17.17
2022-12-15T14:19:43.932Z,17.30
2022-12-15T14:21:57.203Z,16.43
2022-12-15T14:26:27.865Z,17.30
2022-12-15T14:28:32.373Z,18.63
2022-12-15T14:30:35.556Z,19.40
2022-12-15T14:32:38.285Z,18.77
2022-12-15T14:34:41.867Z,19.37
2022-12-15T14:36:44.369Z,18.70
2022-12-15T14:38:56.443Z,19.27
2022-12-15T14:41:01.346Z,17.00
2022-12-15T14:43:04.960Z,20.00
2022-12-15T14:45:18.324Z,16.73
2022-12-15T14:47:23.840Z,19.37
2022-12-15T14:49:29.991Z,17.20
2022-12-15T14:51:40.500Z,18.80
2022-12-15T14:53:43.626Z,17.77
2022-12-15T14:55:46.384Z,17.80
2022-12-15T14:57:48.520Z,16.60
2022-12-15T14:59:53.022Z,17.80
2022-12-15T15:02:06.499Z,17.50
2022-12-15T15:03:05.834Z,17.73
2022-12-15T15:04:29.231Z,18.50
2022-12-15T15:06:36.528Z,19.00
2022-12-15T15:08:50.134Z,18.87
2022-12-15T15:10:53.444Z,19.17
2022-12-15T15:12:55.729Z,19.97
2022-12-15T15:15:06.491Z,17.33
2022-12-15T15:17:19.035Z,18.87
2022-12-15T15:19:22.699Z,17.37
2022-12-15T15:21:27.324Z,18.80
2022-12-15T15:23:30.068Z,18.03
2022-12-15T15:25:41.203Z,18.20
2022-12-15T15:27:43.463Z,19.70
2022-12-15T15:29:45.432Z,17.67
2022-12-15T15:31:47.562Z,19.70
2022-12-15T15:33:49.580Z,19.00
2022-12-15T15:35:53.939Z,18.30
2022-12-15T15:38:02.636Z,19.17
2022-12-15T15:40:10.822Z,20.73
2022-12-15T15:42:13.475Z,25.87
2022-12-15T15:44:15.952Z,23.03
2022-12-15T15:46:25.562Z,21.30
2022-12-15T15:48:31.513Z,20.67
2022-12-15T15:50:33.966Z,19.30
2022-12-15T15:52:35.975Z,18.83
2022-12-15T15:54:38.705Z,18.40
2022-12-15T15:56:41.593Z,19.93
2022-12-15T15:58:44.029Z,18.40
2022-12-15T16:00:46.074Z,21.00
2022-12-15T16:02:48.388Z,20.80
2022-12-15T16:04:50.930Z,22.63
2022-12-15T16:06:53.493Z,22.80
2022-12-15T16:08:55.626Z,22.17
2022-12-15T16:10:57.855Z,20.30
2022-12-15T16:13:01.200Z,20.97
2022-12-15T16:15:12.549Z,21.07
2022-12-15T16:17:15.794Z,20.47
2022-12-15T16:19:17.805Z,20.90
2022-12-15T16:21:20.099Z,22.50
2022-12-15T16:23:27.801Z,23.00
2022-12-15T16:25:42.715Z,25.23
2022-12-15T16:27:46.389Z,25.90
2022-12-15T16:29:48.553Z,31.87
2022-12-15T16:31:50.697Z,26.57
2022-12-15T16:33:52.780Z,30.77
2022-12-15T16:35:54.783Z,26.47
2022-12-15T16:37:56.884Z,25.33
2022-12-15T16:39:58.888Z,26.50
2022-12-15T16:42:01.138Z,27.03
2022-12-15T16:44:03.325Z,24.20
2022-12-15T16:46:05.779Z,26.87
2022-12-15T16:48:08.813Z,24.30
2022-12-15T16:50:20.172Z,23.97
2022-12-15T16:52:22.257Z,24.03
2022-12-15T16:54:26.528Z,20.63
2022-12-15T16:56:28.585Z,20.50
2022-12-15T16:58:31.822Z,21.00
2022-12-15T17:00:35.274Z,23.93
2022-12-15T17:02:38.627Z,20.50
2022-12-15T17:04:40.836Z,22.70
2022-12-15T17:06:43.191Z,20.73
2022-12-15T17:08:50.901Z,21.50
2022-12-15T17:10:53.302Z,21.60
2022-12-15T17:12:59.858Z,20.37
2022-12-15T17:15:02.791Z,20.53
2022-12-15T17:17:16.241Z,20.73
2022-12-15T17:19:21.258Z,20.67
2022-12-15T17:21:29.437Z,20.77
2022-12-15T17:23:32.941Z,22.40
2022-12-15T17:28:04.249Z,22.50
2022-12-15T17:30:06.939Z,23.03
2022-12-15T17:32:12.610Z,25.70
2022-12-15T17:34:30.329Z,23.83
2022-12-15T17:36:32.465Z,21.60
2022-12-15T17:38:34.461Z,21.50
2022-12-15T17:40:36.416Z,23.17
2022-12-15T17:42:38.457Z,25.80
2022-12-15T17:44:40.567Z,25.70
2022-12-15T17:46:42.707Z,23.13
2022-12-15T17:48:45.193Z,25.97
2022-12-15T17:50:49.927Z,24.63
2022-12-15T17:52:51.971Z,24.70
2022-12-15T17:54:54.463Z,22.40
2022-12-15T17:56:56.510Z,24.50
2022-12-15T17:58:58.553Z,22.43
2022-12-15T18:01:00.526Z,22.13
2022-12-15T18:03:02.700Z,24.10
2022-12-15T18:05:05.207Z,23.97
2022-12-15T18:07:14.418Z,23.77
2022-12-15T18:09:18.645Z,23.00
2022-12-15T18:11:20.643Z,23.63
2022-12-15T18:13:24.236Z,23.93
2022-12-15T18:15:28.785Z,25.27
2022-12-15T18:17:31.389Z,26.40
2022-12-15T18:19:35.199Z,24.13
2022-12-15T18:21:37.507Z,23.40
2022-12-15T18:23:39.750Z,22.97
2022-12-15T18:25:42.802Z,22.90
2022-12-15T18:27:44.799Z,22.83
2022-12-15T18:29:46.776Z,22.20
2022-12-15T18:31:48.889Z,26.25
2022-12-15T18:33:51.080Z,25.37
2022-12-15T18:35:53.780Z,22.87
2022-12-15T18:37:56.559Z,22.43
2022-12-15T18:40:04.672Z,22.90
2022-12-15T18:42:17.120Z,22.23
2022-12-15T18:44:24.935Z,23.87
2022-12-15T18:46:28.213Z,23.15
2022-12-15T18:48:32.430Z,24.40
2022-12-15T18:50:34.430Z,23.50
2022-12-15T18:52:36.555Z,22.50
2022-12-15T18:54:38.721Z,24.27
2022-12-15T18:56:40.691Z,25.48
2022-12-15T18:58:42.791Z,23.80
2022-12-15T19:00:45.129Z,23.10
2022-12-15T19:02:48.537Z,23.92
2022-12-15T19:04:50.664Z,27.10
2022-12-15T19:06:52.668Z,26.17
2022-12-15T19:08:54.808Z,24.58
2022-12-15T19:11:02.368Z,26.10
2022-12-15T19:13:06.119Z,24.25
2022-12-15T19:15:14.346Z,24.73
2022-12-15T19:17:37.951Z,25.65
2022-12-15T19:19:58.444Z,23.52
2022-12-15T19:22:19.172Z,26.63
2022-12-15T19:24:45.603Z,24.30
2022-12-15T19:26:47.620Z,24.07
2022-12-15T19:28:49.619Z,24.83
2022-12-15T19:30:52.199Z,25.57
2022-12-15T19:32:54.301Z,25.23
2022-12-15T19:34:56.748Z,25.45
2022-12-15T19:36:59.277Z,28.17
2022-12-15T19:39:01.375Z,24.50
2022-12-15T19:41:03.819Z,28.25
2022-12-15T19:43:05.893Z,26.17
2022-12-15T19:45:22.725Z,25.20
2022-12-15T19:47:24.752Z,25.20
2022-12-15T19:49:26.713Z,25.93
2022-12-15T19:51:28.891Z,26.08
2022-12-15T19:53:31.488Z,26.17
2022-12-15T19:55:35.203Z,23.08
2022-12-15T19:57:37.252Z,23.83
2022-12-15T19:59:39.439Z,24.10
2022-12-15T20:01:41.533Z,22.40
2022-12-15T20:03:46.159Z,24.00
2022-12-15T20:05:50.899Z,25.70
2022-12-15T20:07:53.432Z,28.05
2022-12-15T20:09:56.131Z,24.00
2022-12-15T20:11:58.159Z,24.40
2022-12-15T20:14:01.982Z,24.02
2022-12-15T20:16:04.194Z,22.52
2022-12-15T20:18:06.344Z,25.03
2022-12-15T20:20:09.741Z,22.35
2022-12-15T20:22:16.924Z,24.20
2022-12-15T20:24:19.692Z,21.38
2022-12-15T20:26:22.789Z,21.10
2022-12-15T20:28:27.185Z,21.92
2022-12-15T20:30:35.418Z,20.67
2022-12-15T20:32:38.620Z,23.00
2022-12-15T20:34:40.778Z,23.35
2022-12-15T20:36:42.787Z,22.60
2022-12-15T20:38:45.501Z,22.90
2022-12-15T20:40:47.632Z,23.02
2022-12-15T20:42:50.291Z,22.35
2022-12-15T20:44:54.198Z,21.63
2022-12-15T20:46:56.499Z,24.77
2022-12-15T20:48:58.599Z,23.90
2022-12-15T20:51:04.323Z,23.37
2022-12-15T20:53:21.805Z,22.60
2022-12-15T20:55:23.988Z,23.97
2022-12-15T20:57:25.998Z,23.35
2022-12-15T20:59:28.116Z,24.77
2022-12-15T21:01:33.725Z,24.55
2022-12-15T21:03:40.906Z,23.95
2022-12-15T21:05:43.018Z,26.15
2022-12-15T21:07:45.570Z,23.23
2022-12-15T21:09:47.674Z,24.77
2022-12-15T21:11:51.780Z,24.60
2022-12-15T21:13:56.655Z,26.75
2022-12-15T21:15:58.759Z,23.10
2022-12-15T21:18:40.188Z,23.57
2022-12-15T21:20:22.791Z,23.23
2022-12-15T21:22:26.934Z,22.00
2022-12-15T21:24:29.195Z,24.75
2022-12-15T21:26:31.241Z,24.83
2022-12-15T21:28:33.480Z,24.05
2022-12-15T21:30:35.860Z,31.33
2022-12-15T21:32:37.993Z,29.58
2022-12-15T21:34:40.038Z,29.90
2022-12-15T21:36:44.029Z,24.95
2022-12-15T21:38:51.827Z,29.20
2022-12-15T21:40:59.589Z,27.23
2022-12-15T21:43:04.186Z,28.65
2022-12-15T21:45:20.167Z,27.65
2022-12-15T21:47:24.141Z,28.30
2022-12-15T21:49:26.354Z,27.30
2022-12-15T21:51:38.049Z,27.30
2022-12-15T21:53:40.105Z,26.48
2022-12-15T21:55:42.300Z,24.30
2022-12-15T21:57:44.876Z,26.02
2022-12-15T21:59:46.945Z,25.05
2022-12-15T22:01:49.616Z,26.17
2022-12-15T22:03:56.757Z,25.63
2022-12-15T22:05:58.807Z,23.40
2022-12-15T22:08:18.559Z,22.45
2022-12-15T22:10:20.641Z,24.02
2022-12-15T22:12:24.199Z,23.93
2022-12-15T22:14:29.389Z,24.83
2022-12-15T22:16:31.524Z,22.20
2022-12-15T22:18:33.862Z,21.75
2022-12-15T22:20:36.380Z,22.60
2022-12-15T22:22:38.372Z,21.95
2022-12-15T22:24:40.893Z,21.15
2022-12-15T22:26:43.269Z,22.77
2022-12-15T22:28:45.239Z,24.80
2022-12-15T22:30:48.569Z,24.08
2022-12-15T22:32:50.671Z,21.52
2022-12-15T22:34:52.788Z,22.73
2022-12-15T22:36:55.137Z,21.92
2022-12-15T22:38:57.154Z,20.98
2022-12-15T22:40:59.488Z,23.00
2022-12-15T22:43:01.979Z,22.13
2022-12-15T22:45:06.075Z,23.90
2022-12-15T22:47:09.913Z,21.42
2022-12-15T22:49:20.852Z,21.50
2022-12-15T22:51:23.124Z,25.25
2022-12-15T22:53:27.204Z,25.00
2022-12-15T22:55:29.160Z,22.38
2022-12-15T22:57:31.314Z,22.17
2022-12-15T22:59:42.689Z,24.08
2022-12-15T23:01:45.523Z,22.90
2022-12-15T23:03:47.547Z,21.15
2022-12-15T23:05:49.607Z,21.13
2022-12-15T23:07:51.715Z,22.63
2022-12-15T23:10:13.968Z,22.63
2022-12-15T23:12:16.119Z,22.05
2022-12-15T23:14:19.031Z,20.63
2022-12-15T23:16:21.531Z,22.38
2022-12-15T23:18:24.026Z,21.33
2022-12-15T23:20:26.079Z,20.73
2022-12-15T23:22:28.074Z,20.60
2022-12-15T23:24:31.318Z,18.95
2022-12-15T23:26:33.483Z,22.70
2022-12-15T23:28:35.960Z,19.65
2022-12-15T23:30:38.044Z,21.38
2022-12-15T23:32:40.075Z,19.25
2022-12-15T23:34:42.190Z,22.48
2022-12-15T23:36:44.433Z,19.63
2022-12-15T23:38:46.550Z,18.13
2022-12-15T23:40:52.858Z,22.58
2022-12-15T23:42:55.248Z,18.03
2022-12-15T23:44:57.544Z,19.27
2022-12-15T23:46:59.762Z,20.17
2022-12-15T23:49:01.777Z,18.63
2022-12-15T23:51:09.445Z,19.30
2022-12-15T23:53:11.527Z,19.52
2022-12-15T23:55:13.952Z,19.13
2022-12-15T23:57:17.267Z,17.98
2022-12-15T23:59:19.220Z,19.95
